John G — WDF2677 — position and weather

sailwx.info

Track history (hours):
 
Tides and Currents Weather Stations Pressure Air Temp Water Temp Dewpoint Dewpoint Depression Visibility Wind Speed Wind Dir Waves Ship Positions

John G

Owner: Marquette Transportation Company Offshore LLC, Jefferson, LA. More information available from US FCC via Universal Licensing System and Coast Guard Vessel Documentation Center.

Last reported at 2015-Aug-26 03:25 UTC. Time now 2015-Aug-28 19:18 UTC.
Position N 29°21' W 094°48'.

Length 30 m; draft 3.3 m.

Type: Towing. MMSI: 367009680.

Date/timePositionNaut miles runAvg speedWind from/ knotsBaromVisibWave heightAir tempDewpointWater temp
2015-Aug-26 03:25N 29°21' W 094°48'11 0.7
2015-Aug-25 11:04N 29°31' W 094°53'4 6.9
2015-Aug-25 10:33N 29°34' W 094°55'7 7.2
2015-Aug-25 09:33N 29°40' W 094°59'6 6.2
2015-Aug-25 08:33N 29°45' W 095°04'2 1.1
2015-Aug-25 06:33N 29°47' W 095°05'1 0.5
2015-Aug-25 05:06N 29°47' W 095°04'0 0.4
2015-Aug-25 04:15N 29°47' W 095°04'1 0.7
2015-Aug-25 03:23N 29°47' W 095°05'0 0.0
2015-Aug-25 02:32N 29°47' W 095°05'0 0.0
2015-Aug-25 01:33N 29°47' W 095°05'0 0.0
2015-Aug-25 00:33N 29°47' W 095°05'0 0.0
2015-Aug-24 23:33N 29°47' W 095°05'0 0.0
2015-Aug-24 22:33N 29°47' W 095°05'0 0.0
2015-Aug-24 21:33N 29°47' W 095°05'0 0.0
2015-Aug-24 20:18N 29°47' W 095°05'0 0.0
2015-Aug-24 19:33N 29°47' W 095°05'0 0.0
2015-Aug-24 18:24N 29°47' W 095°05'0 0.0
2015-Aug-24 17:12N 29°47' W 095°05'0 0.0
2015-Aug-24 16:15N 29°47' W 095°05'0 0.0
2015-Aug-24 15:20N 29°47' W 095°05'0 0.0
2015-Aug-24 14:23N 29°47' W 095°05'0 0.0
2015-Aug-24 13:32N 29°47' W 095°05'0 0.0
2015-Aug-24 12:33N 29°47' W 095°05'0 0.0
2015-Aug-24 11:29N 29°47' W 095°05'0 0.0
2015-Aug-24 10:33N 29°47' W 095°05'0 0.0
2015-Aug-24 09:29N 29°47' W 095°05'0 0.0
2015-Aug-24 08:33N 29°47' W 095°05'0 0.0
2015-Aug-24 07:32N 29°47' W 095°05'2 1.0
2015-Aug-24 05:27N 29°45' W 095°06'2 0.7
2015-Aug-24 03:15N 29°47' W 095°05'0 0.1
2015-Aug-24 02:26N 29°47' W 095°05'1 0.8
2015-Aug-24 01:28N 29°46' W 095°05'5 5.9
2015-Aug-24 00:33N 29°42' W 095°00'6 6.4
2015-Aug-23 23:33N 29°36' W 094°57'7 7.0
2015-Aug-23 22:33N 29°31' W 094°53'8 6.6
2015-Aug-23 21:22N 29°23' W 094°49'  
2015-Aug-19 02:33N 29°32' W 090°48'3 3.3
2015-Aug-19 01:33N 29°34' W 090°45'2 2.3
2015-Aug-19 00:33N 29°35' W 090°43'2 2.0
2015-Aug-18 23:33N 29°37' W 090°41'1 0.8
2015-Aug-18 22:33N 29°36' W 090°40'0 0.0
2015-Aug-18 21:33N 29°36' W 090°40'0 0.0
2015-Aug-18 20:33N 29°36' W 090°40'0 0.0
2015-Aug-18 19:33N 29°36' W 090°40'0 0.1
2015-Aug-18 18:33N 29°36' W 090°41'0 0.1
2015-Aug-18 17:33N 29°36' W 090°41'0 0.0
2015-Aug-18 16:33N 29°36' W 090°41'0 0.1
2015-Aug-18 15:33N 29°36' W 090°40'4 3.7
2015-Aug-18 14:33N 29°35' W 090°36'3 3.4
2015-Aug-18 13:33N 29°34' W 090°33'5 4.4
2015-Aug-18 12:26N 29°33' W 090°27'29 1.0
2015-Aug-17 08:14N 29°55' W 090°04'  
Track history (hours):
 
Tides and Currents Weather Stations Pressure Air Temp Water Temp Dewpoint Dewpoint Depression Visibility Wind Speed Wind Dir Waves Ship Positions

John G

Owner: Marquette Transportation Company Offshore LLC, Jefferson, LA. More information available from US FCC via Universal Licensing System and Coast Guard Vessel Documentation Center.

Last reported at 2015-Aug-26 03:25 UTC. Time now 2015-Aug-28 19:18 UTC.
Position N 29°21' W 094°48'.

Length 30 m; draft 3.3 m.

Type: Towing. MMSI: 367009680.

Date/timePositionNaut miles runAvg speedWind from/ knotsBaromVisibWave heightAir tempDewpointWater temp
2015-Aug-26 03:25N 29°21' W 094°48'11 0.7
2015-Aug-25 11:04N 29°31' W 094°53'4 6.9
2015-Aug-25 10:33N 29°34' W 094°55'7 7.2
2015-Aug-25 09:33N 29°40' W 094°59'6 6.2
2015-Aug-25 08:33N 29°45' W 095°04'2 1.1
2015-Aug-25 06:33N 29°47' W 095°05'1 0.5
2015-Aug-25 05:06N 29°47' W 095°04'0 0.4
2015-Aug-25 04:15N 29°47' W 095°04'1 0.7
2015-Aug-25 03:23N 29°47' W 095°05'0 0.0
2015-Aug-25 02:32N 29°47' W 095°05'0 0.0
2015-Aug-25 01:33N 29°47' W 095°05'0 0.0
2015-Aug-25 00:33N 29°47' W 095°05'0 0.0
2015-Aug-24 23:33N 29°47' W 095°05'0 0.0
2015-Aug-24 22:33N 29°47' W 095°05'0 0.0
2015-Aug-24 21:33N 29°47' W 095°05'0 0.0
2015-Aug-24 20:18N 29°47' W 095°05'0 0.0
2015-Aug-24 19:33N 29°47' W 095°05'0 0.0
2015-Aug-24 18:24N 29°47' W 095°05'0 0.0
2015-Aug-24 17:12N 29°47' W 095°05'0 0.0
2015-Aug-24 16:15N 29°47' W 095°05'0 0.0
2015-Aug-24 15:20N 29°47' W 095°05'0 0.0
2015-Aug-24 14:23N 29°47' W 095°05'0 0.0
2015-Aug-24 13:32N 29°47' W 095°05'0 0.0
2015-Aug-24 12:33N 29°47' W 095°05'0 0.0
2015-Aug-24 11:29N 29°47' W 095°05'0 0.0
2015-Aug-24 10:33N 29°47' W 095°05'0 0.0
2015-Aug-24 09:29N 29°47' W 095°05'0 0.0
2015-Aug-24 08:33N 29°47' W 095°05'0 0.0
2015-Aug-24 07:32N 29°47' W 095°05'2 1.0
2015-Aug-24 05:27N 29°45' W 095°06'2 0.7
2015-Aug-24 03:15N 29°47' W 095°05'0 0.1
2015-Aug-24 02:26N 29°47' W 095°05'1 0.8
2015-Aug-24 01:28N 29°46' W 095°05'5 5.9
2015-Aug-24 00:33N 29°42' W 095°00'6 6.4
2015-Aug-23 23:33N 29°36' W 094°57'7 7.0
2015-Aug-23 22:33N 29°31' W 094°53'8 6.6
2015-Aug-23 21:22N 29°23' W 094°49'  
2015-Aug-19 02:33N 29°32' W 090°48'3 3.3
2015-Aug-19 01:33N 29°34' W 090°45'2 2.3
2015-Aug-19 00:33N 29°35' W 090°43'2 2.0
2015-Aug-18 23:33N 29°37' W 090°41'1 0.8
2015-Aug-18 22:33N 29°36' W 090°40'0 0.0
2015-Aug-18 21:33N 29°36' W 090°40'0 0.0
2015-Aug-18 20:33N 29°36' W 090°40'0 0.0
2015-Aug-18 19:33N 29°36' W 090°40'0 0.1
2015-Aug-18 18:33N 29°36' W 090°41'0 0.1
2015-Aug-18 17:33N 29°36' W 090°41'0 0.0
2015-Aug-18 16:33N 29°36' W 090°41'0 0.1
2015-Aug-18 15:33N 29°36' W 090°40'4 3.7
2015-Aug-18 14:33N 29°35' W 090°36'3 3.4
2015-Aug-18 13:33N 29°34' W 090°33'5 4.4
2015-Aug-18 12:26N 29°33' W 090°27'29 1.0
2015-Aug-17 08:14N 29°55' W 090°04'  

Dump ship's entire track history